createdAt,value
2022-10-13T00:01:49.418Z,100186.44
2022-10-13T00:04:15.958Z,100190.22
2022-10-13T00:06:42.519Z,100190.41
2022-10-13T00:09:09.075Z,100185.41
2022-10-13T00:11:35.689Z,100182.88
2022-10-13T00:14:04.716Z,100190.97
2022-10-13T00:16:32.900Z,100183.03
2022-10-13T00:18:59.797Z,100175.19
2022-10-13T00:21:27.929Z,100177.75
2022-10-13T00:23:55.384Z,100178.72
2022-10-13T00:26:25.031Z,100170.00
2022-10-13T00:28:53.021Z,100175.28
2022-10-13T00:31:21.271Z,100170.97
2022-10-13T00:33:49.451Z,100173.69
2022-10-13T00:36:16.753Z,100169.34
2022-10-13T00:38:43.836Z,100174.81
2022-10-13T00:41:11.071Z,100180.19
2022-10-13T00:43:53.998Z,100180.56
2022-10-13T00:46:22.302Z,100176.03
2022-10-13T00:48:50.772Z,100179.63
2022-10-13T00:51:23.190Z,100173.59
2022-10-13T00:53:50.703Z,100179.78
2022-10-13T00:56:19.890Z,100181.69
2022-10-13T00:58:47.798Z,100178.28
2022-10-13T01:01:14.765Z,100180.91
2022-10-13T01:03:41.648Z,100171.31
2022-10-13T01:06:09.096Z,100181.97
2022-10-13T01:08:36.073Z,100165.28
2022-10-13T01:11:17.683Z,100158.56
2022-10-13T01:13:55.342Z,100156.78
2022-10-13T01:16:31.080Z,100157.63
2022-10-13T01:19:21.372Z,100150.06
2022-10-13T01:22:31.504Z,100147.53
2022-10-13T01:25:09.188Z,100132.53
2022-10-13T01:27:46.903Z,100136.78
2022-10-13T01:30:19.481Z,100128.00
2022-10-13T01:33:04.097Z,100133.94
2022-10-13T01:35:39.584Z,100128.00
2022-10-13T01:38:15.098Z,100125.25
2022-10-13T01:40:49.988Z,100130.47
2022-10-13T01:43:16.485Z,100125.91
2022-10-13T01:45:50.172Z,100125.09
2022-10-13T01:48:18.003Z,100119.59
2022-10-13T01:50:45.746Z,100115.09
2022-10-13T01:53:14.947Z,100120.28
2022-10-13T01:55:56.401Z,100109.78
2022-10-13T01:58:25.149Z,100105.94
2022-10-13T02:01:03.926Z,100113.00
2022-10-13T02:03:43.590Z,100120.94
2022-10-13T02:06:30.442Z,100116.59
2022-10-13T02:09:10.771Z,100112.06
2022-10-13T02:11:45.268Z,100111.97
2022-10-13T02:14:18.491Z,100114.59
2022-10-13T02:16:47.050Z,100114.50
2022-10-13T02:19:16.229Z,100111.00
2022-10-13T02:21:43.406Z,100114.50
2022-10-13T02:24:10.422Z,100111.88
2022-10-13T02:26:38.167Z,100114.50
2022-10-13T02:29:12.948Z,100107.63
2022-10-13T02:31:40.674Z,100087.13
2022-10-13T02:34:07.665Z,100097.63
2022-10-13T02:36:35.180Z,100097.53
2022-10-13T02:39:01.763Z,100100.09
2022-10-13T02:41:28.317Z,100092.91
2022-10-13T02:43:54.865Z,100097.34
2022-10-13T02:46:22.003Z,100098.19
2022-10-13T02:48:48.564Z,100098.19
2022-10-13T02:51:15.155Z,100101.69
2022-10-13T02:53:41.754Z,100106.00
2022-10-13T02:56:08.424Z,100103.38
2022-10-13T02:58:35.462Z,100099.88
2022-10-13T03:01:10.359Z,100106.00
2022-10-13T03:03:37.050Z,100103.19
2022-10-13T03:06:04.211Z,100093.38
2022-10-13T03:08:33.299Z,100090.53
2022-10-13T03:10:59.993Z,100092.03
2022-10-13T03:13:26.673Z,100089.22
2022-10-13T03:15:53.274Z,100088.25
2022-10-13T03:18:19.867Z,100086.25
2022-10-13T03:20:55.996Z,100087.22
2022-10-13T03:23:22.544Z,100089.47
2022-10-13T03:25:49.069Z,100077.97
2022-10-13T03:28:15.693Z,100074.28
2022-10-13T03:30:42.236Z,100082.13
2022-10-13T03:33:08.796Z,100079.34
2022-10-13T03:35:36.256Z,100069.63
2022-10-13T03:38:03.038Z,100068.78
2022-10-13T03:40:29.592Z,100068.78
2022-10-13T03:42:56.232Z,100067.09
2022-10-13T03:45:22.904Z,100068.78
2022-10-13T03:47:49.574Z,100055.56
2022-10-13T03:50:16.373Z,100063.47
2022-10-13T03:52:42.904Z,100068.78
2022-10-13T03:55:09.601Z,100055.69
2022-10-13T03:57:36.152Z,100056.50
2022-10-13T04:00:03.983Z,100053.84
2022-10-13T04:02:30.533Z,100051.31
2022-10-13T04:04:57.037Z,100052.25
2022-10-13T04:07:23.594Z,100051.31
2022-10-13T04:09:50.106Z,100048.66
2022-10-13T04:12:20.595Z,100043.38
2022-10-13T04:14:47.786Z,100043.28
2022-10-13T04:17:14.381Z,100037.16
2022-10-13T04:19:40.951Z,100038.00
2022-10-13T04:22:07.523Z,100027.41
2022-10-13T04:24:34.188Z,100027.31
2022-10-13T04:27:00.695Z,100030.84
2022-10-13T04:29:27.304Z,100023.72
2022-10-13T04:31:53.806Z,100014.88
2022-10-13T04:34:20.825Z,100022.81
2022-10-13T04:36:50.204Z,100022.91
2022-10-13T04:39:16.778Z,100024.59
2022-10-13T04:41:43.305Z,100017.63
2022-10-13T04:44:09.975Z,100015.81
2022-10-13T04:46:36.564Z,100016.66
2022-10-13T04:49:03.460Z,100013.16
2022-10-13T04:51:30.056Z,100013.16
2022-10-13T04:53:58.439Z,100010.50
2022-10-13T04:56:25.914Z,100013.16
2022-10-13T04:58:52.753Z,100014.09
2022-10-13T05:01:22.617Z,100020.34
2022-10-13T05:03:57.085Z,100017.81
2022-10-13T05:06:26.450Z,100010.59
2022-10-13T05:08:53.079Z,100009.69
2022-10-13T05:11:22.755Z,99997.28
2022-10-13T05:13:49.336Z,99992.97
2022-10-13T05:16:18.877Z,100005.31
2022-10-13T05:18:45.589Z,100005.31
2022-10-13T05:21:14.049Z,99993.06
2022-10-13T05:23:41.019Z,99979.84
2022-10-13T05:26:10.898Z,99988.72
2022-10-13T05:28:38.083Z,99981.66
2022-10-13T05:31:21.208Z,99976.75
2022-10-13T05:33:48.840Z,99991.47
2022-10-13T05:36:21.422Z,99981.94
2022-10-13T05:38:52.744Z,99990.72
2022-10-13T05:41:20.592Z,99990.72
2022-10-13T05:43:47.321Z,99988.91
2022-10-13T05:46:14.556Z,99981.94
2022-10-13T05:48:41.229Z,99980.16
2022-10-13T05:51:15.821Z,99998.84
2022-10-13T05:53:51.014Z,99990.81
2022-10-13T05:56:26.090Z,99983.72
2022-10-13T05:58:54.813Z,99984.56
2022-10-13T06:01:25.331Z,99972.94
2022-10-13T06:03:54.773Z,99975.69
2022-10-13T06:06:25.817Z,99988.09
2022-10-13T06:08:55.760Z,99968.72
2022-10-13T06:11:22.326Z,99963.34
2022-10-13T06:13:48.885Z,99966.84
2022-10-13T06:16:15.413Z,99977.41
2022-10-13T06:18:41.972Z,99976.47
2022-10-13T06:21:08.525Z,99983.44
2022-10-13T06:23:35.044Z,99977.94
2022-10-13T06:26:01.686Z,99968.09
2022-10-13T06:28:28.308Z,99966.22
2022-10-13T06:30:56.918Z,99966.88
2022-10-13T06:33:24.958Z,99959.66
2022-10-13T06:35:52.629Z,99963.97
2022-10-13T06:38:19.854Z,99962.81
2022-10-13T06:40:46.377Z,99965.22
2022-10-13T06:43:12.983Z,99964.19
2022-10-13T06:45:39.549Z,99970.31
2022-10-13T06:48:06.186Z,99976.25
2022-10-13T06:50:32.758Z,99986.72
2022-10-13T06:52:59.385Z,99979.66
2022-10-13T06:55:26.675Z,99975.09
2022-10-13T06:57:53.209Z,99983.91
2022-10-13T07:00:20.128Z,99978.50
2022-10-13T07:02:50.320Z,99973.22
2022-10-13T07:05:16.996Z,99984.44
2022-10-13T07:07:43.733Z,99965.91
2022-10-13T07:10:10.378Z,99972.88
2022-10-13T07:12:36.914Z,99973.66
2022-10-13T07:15:03.738Z,99984.00
2022-10-13T07:17:30.275Z,99982.22
2022-10-13T07:19:57.957Z,99980.34
2022-10-13T07:22:25.099Z,99982.84
2022-10-13T07:24:51.664Z,99978.31
2022-10-13T07:27:18.218Z,99980.78
2022-10-13T07:29:44.749Z,99986.78
2022-10-13T07:32:11.363Z,99981.19
2022-10-13T07:34:37.977Z,99984.56
2022-10-13T07:37:07.727Z,99987.13
2022-10-13T07:39:34.398Z,99979.72
2022-10-13T07:42:01.003Z,99981.19
2022-10-13T07:44:27.690Z,99977.38
2022-10-13T07:46:54.240Z,99985.13
2022-10-13T07:49:20.901Z,99981.41
2022-10-13T07:51:47.451Z,99972.41
2022-10-13T07:54:14.977Z,99980.25
2022-10-13T07:56:41.516Z,99980.16
2022-10-13T07:59:08.286Z,99975.59
2022-10-13T08:01:35.073Z,99974.53
2022-10-13T08:04:01.773Z,99976.97
2022-10-13T08:06:28.492Z,99974.00
2022-10-13T08:08:55.227Z,99975.59
2022-10-13T08:11:21.772Z,99971.78
2022-10-13T08:13:50.602Z,99980.34
2022-10-13T08:16:17.698Z,99979.19
2022-10-13T08:18:44.882Z,99979.81
2022-10-13T08:24:07.631Z,99980.22
2022-10-13T08:26:34.180Z,99982.66
2022-10-13T08:29:20.642Z,99976.28
2022-10-13T08:34:13.980Z,99974.59
2022-10-13T08:36:40.699Z,99971.53
2022-10-13T08:39:07.462Z,99980.72
2022-10-13T08:41:40.160Z,99975.00
2022-10-13T08:47:35.524Z,99980.03
2022-10-13T08:50:13.407Z,99981.81
2022-10-13T08:52:54.031Z,99974.59
2022-10-13T08:55:28.033Z,99972.56
2022-10-13T08:57:54.641Z,99981.16
2022-10-13T09:00:21.295Z,99972.13
2022-10-13T09:02:49.128Z,99971.06
2022-10-13T09:05:57.440Z,99971.06
2022-10-13T09:08:28.231Z,99959.88
2022-10-13T09:10:54.816Z,99966.75
2022-10-13T09:13:21.396Z,99967.25
2022-10-13T09:15:52.306Z,99959.69
2022-10-13T09:18:19.149Z,99970.81
2022-10-13T09:20:45.789Z,99958.78
2022-10-13T09:23:23.085Z,99960.97
2022-10-13T09:25:52.084Z,99961.38
2022-10-13T09:28:28.505Z,99968.84
2022-10-13T09:31:03.384Z,99958.38
2022-10-13T09:33:34.064Z,99949.84
2022-10-13T09:36:00.572Z,99954.59
2022-10-13T09:38:28.038Z,99954.00
2022-10-13T09:41:09.842Z,99963.41
2022-10-13T09:43:45.703Z,99960.16
2022-10-13T09:46:14.008Z,99943.59
2022-10-13T09:48:46.153Z,99948.19
2022-10-13T09:51:32.546Z,99945.28
2022-10-13T09:53:59.656Z,99945.31
2022-10-13T09:56:33.685Z,99932.50
2022-10-13T09:59:06.271Z,99933.69
2022-10-13T10:01:38.953Z,99940.94
2022-10-13T10:04:11.045Z,99942.09
2022-10-13T10:06:40.065Z,99947.63
2022-10-13T10:09:27.626Z,99942.09
2022-10-13T10:11:57.713Z,99939.69
2022-10-13T10:14:27.932Z,99941.13
2022-10-13T10:17:07.429Z,99940.03
2022-10-13T10:19:52.910Z,99936.25
2022-10-13T10:22:42.852Z,99945.91
2022-10-13T10:25:37.931Z,99932.63
2022-10-13T10:28:10.204Z,99931.53
2022-10-13T10:31:03.587Z,99941.47
2022-10-13T10:33:44.356Z,99937.25
2022-10-13T10:36:22.149Z,99930.34
2022-10-13T10:38:55.317Z,99937.47
2022-10-13T10:41:38.774Z,99931.69
2022-10-13T10:44:10.915Z,99936.66
2022-10-13T10:46:44.251Z,99939.44
2022-10-13T10:49:16.944Z,99938.69
2022-10-13T10:51:44.549Z,99929.75
2022-10-13T10:54:17.213Z,99925.53
2022-10-13T10:56:56.031Z,99925.69
2022-10-13T10:59:48.945Z,99920.94
2022-10-13T11:02:43.406Z,99917.53
2022-10-13T11:05:10.715Z,99909.91
2022-10-13T11:07:40.183Z,99902.91
2022-10-13T11:10:21.373Z,99907.41
2022-10-13T11:13:15.001Z,99904.75
2022-10-13T11:15:43.648Z,99898.03
2022-10-13T11:18:47.905Z,99906.03
2022-10-13T11:21:14.633Z,99895.13
2022-10-13T11:23:47.888Z,99897.09
2022-10-13T11:26:42.126Z,99889.25
2022-10-13T11:29:18.514Z,99886.31
2022-10-13T11:31:55.133Z,99887.72
2022-10-13T11:34:29.991Z,99876.72
2022-10-13T11:36:59.123Z,99882.25
2022-10-13T11:39:26.799Z,99875.44
2022-10-13T11:42:05.382Z,99874.06
2022-10-13T11:44:57.781Z,99870.66
2022-10-13T11:47:43.092Z,99872.22
2022-10-13T11:50:25.626Z,99864.63
2022-10-13T11:53:11.671Z,99860.75
2022-10-13T11:55:47.436Z,99862.94
2022-10-13T11:58:23.925Z,99867.47
2022-10-13T12:00:57.916Z,99863.72
2022-10-13T12:03:30.254Z,99863.78
2022-10-13T12:06:34.112Z,99862.00
2022-10-13T12:09:04.053Z,99869.47
2022-10-13T12:11:37.820Z,99850.09
2022-10-13T12:14:08.638Z,99853.69
2022-10-13T12:16:35.277Z,99859.03
2022-10-13T12:19:21.617Z,99850.09
2022-10-13T12:21:53.247Z,99846.50
2022-10-13T12:24:25.202Z,99847.19
2022-10-13T12:26:55.639Z,99850.13
2022-10-13T12:29:28.880Z,99846.78
2022-10-13T12:31:58.630Z,99844.72
2022-10-13T12:34:32.938Z,99846.09
2022-10-13T12:37:01.046Z,99841.53
2022-10-13T12:39:30.982Z,99842.78
2022-10-13T12:41:59.162Z,99833.63
2022-10-13T12:44:28.778Z,99846.56
2022-10-13T12:47:02.033Z,99832.16
2022-10-13T12:49:31.561Z,99825.06
2022-10-13T12:52:14.848Z,99817.91
2022-10-13T12:54:54.110Z,99829.34
2022-10-13T12:57:36.243Z,99839.56
2022-10-13T13:00:05.755Z,99831.00
2022-10-13T13:02:33.424Z,99833.34
2022-10-13T13:04:59.969Z,99830.97
2022-10-13T13:07:34.868Z,99833.75
2022-10-13T13:10:12.982Z,99830.66
2022-10-13T13:12:39.955Z,99836.25
2022-10-13T13:15:33.694Z,99830.53
2022-10-13T13:18:36.290Z,99829.53
2022-10-13T13:21:05.986Z,99834.09
2022-10-13T13:23:36.071Z,99827.06
2022-10-13T13:26:04.420Z,99828.03
2022-10-13T13:28:34.239Z,99827.34
2022-10-13T13:31:01.126Z,99827.56
2022-10-13T13:33:27.798Z,99819.22
2022-10-13T13:35:54.568Z,99828.13
2022-10-13T13:38:21.210Z,99822.16
2022-10-13T13:40:47.736Z,99818.53
2022-10-13T13:43:14.272Z,99817.59
2022-10-13T13:45:40.855Z,99818.13
2022-10-13T13:48:08.102Z,99817.88
2022-10-13T13:50:36.633Z,99822.84
2022-10-13T13:53:04.593Z,99828.78
2022-10-13T13:55:31.570Z,99822.03
2022-10-13T13:57:58.663Z,99822.59
2022-10-13T14:00:25.298Z,99821.38
2022-10-13T14:02:51.823Z,99817.44
2022-10-13T14:05:18.404Z,99821.81
2022-10-13T14:07:44.949Z,99828.72
2022-10-13T14:10:11.651Z,99824.94
2022-10-13T14:12:38.345Z,99824.81
2022-10-13T14:15:05.344Z,99824.66
2022-10-13T14:17:32.109Z,99836.03
2022-10-13T14:19:58.682Z,99830.53
2022-10-13T14:22:25.584Z,99828.59
2022-10-13T14:24:52.748Z,99832.91
2022-10-13T14:27:19.301Z,99836.28
2022-10-13T14:29:45.918Z,99826.31
2022-10-13T14:32:12.699Z,99828.53
2022-10-13T14:34:39.332Z,99823.78
2022-10-13T14:37:06.280Z,99833.16
2022-10-13T14:39:32.843Z,99828.38
2022-10-13T14:41:59.383Z,99825.25
2022-10-13T14:44:25.986Z,99819.63
2022-10-13T14:46:52.568Z,99827.19
2022-10-13T14:49:19.136Z,99821.44
2022-10-13T14:51:45.680Z,99820.16
2022-10-13T14:54:12.782Z,99823.22
2022-10-13T14:56:39.337Z,99822.63
2022-10-13T14:59:07.163Z,99818.41
2022-10-13T15:01:34.125Z,99821.31
2022-10-13T15:04:01.625Z,99824.28
2022-10-13T15:06:28.940Z,99815.69
2022-10-13T15:08:56.085Z,99816.81
2022-10-13T15:11:23.393Z,99819.91
2022-10-13T15:13:50.061Z,99813.03
2022-10-13T15:16:22.701Z,99810.03
2022-10-13T15:18:49.698Z,99814.50
2022-10-13T15:21:17.037Z,99807.78
2022-10-13T15:23:44.445Z,99811.53
2022-10-13T15:26:12.372Z,99806.47
2022-10-13T15:28:44.566Z,99808.69
2022-10-13T15:31:12.853Z,99803.63
2022-10-13T15:33:42.770Z,99810.34
2022-10-13T15:36:09.416Z,99811.41
2022-10-13T15:38:36.109Z,99801.19
2022-10-13T15:41:05.122Z,99808.72
2022-10-13T15:43:32.643Z,99802.69
2022-10-13T15:46:12.349Z,99799.56
2022-10-13T15:48:39.670Z,99798.72
2022-10-13T15:51:14.526Z,99800.09
2022-10-13T15:53:41.064Z,99794.91
2022-10-13T15:56:08.412Z,99794.06
2022-10-13T15:58:35.700Z,99790.69
2022-10-13T16:01:06.922Z,99794.31
2022-10-13T16:03:33.515Z,99791.81
2022-10-13T16:06:03.944Z,99795.69
2022-10-13T16:08:30.501Z,99800.03
2022-10-13T16:10:57.041Z,99791.44
2022-10-13T16:13:23.651Z,99794.38
2022-10-13T16:16:00.386Z,99784.22
2022-10-13T16:18:31.893Z,99790.63
2022-10-13T16:20:58.640Z,99793.41
2022-10-13T16:23:25.480Z,99788.38
2022-10-13T16:25:52.322Z,99789.59
2022-10-13T16:28:18.896Z,99784.53
2022-10-13T16:30:45.458Z,99785.75
2022-10-13T16:33:12.008Z,99788.66
2022-10-13T16:35:38.600Z,99801.38
2022-10-13T16:38:05.174Z,99794.75
2022-10-13T16:40:32.495Z,99802.13
2022-10-13T16:42:59.042Z,99797.19
2022-10-13T16:45:41.252Z,99789.50
2022-10-13T16:48:13.146Z,99791.41
2022-10-13T16:50:39.733Z,99792.63
2022-10-13T16:53:06.315Z,99798.19
2022-10-13T16:55:32.868Z,99800.25
2022-10-13T16:57:59.400Z,99789.88
2022-10-13T17:00:26.022Z,99790.25
2022-10-13T17:02:52.674Z,99795.69
2022-10-13T17:05:19.227Z,99793.16
2022-10-13T17:07:45.735Z,99797.78
2022-10-13T17:10:12.283Z,99788.25
2022-10-13T17:12:38.874Z,99793.66
2022-10-13T17:15:06.041Z,99796.44
2022-10-13T17:17:32.574Z,99793.06
2022-10-13T17:19:59.179Z,99791.38
2022-10-13T17:22:25.858Z,99790.66
2022-10-13T17:24:52.386Z,99795.13
2022-10-13T17:27:19.276Z,99789.94
2022-10-13T17:29:46.513Z,99795.25
2022-10-13T17:32:13.091Z,99791.88
2022-10-13T17:34:39.710Z,99792.00
2022-10-13T17:37:06.374Z,99792.22
2022-10-13T17:39:32.909Z,99789.69
2022-10-13T17:41:59.429Z,99790.66
2022-10-13T17:44:26.134Z,99791.66
2022-10-13T17:46:52.667Z,99792.47
2022-10-13T17:49:19.329Z,99801.28
2022-10-13T17:51:46.581Z,99794.19
2022-10-13T17:54:16.390Z,99791.66
2022-10-13T17:56:43.675Z,99789.81
2022-10-13T17:59:10.290Z,99793.22
2022-10-13T18:01:37.455Z,99788.72
2022-10-13T18:04:08.509Z,99787.91
2022-10-13T18:06:39.960Z,99788.72
2022-10-13T18:09:08.514Z,99791.25
2022-10-13T18:11:36.282Z,99792.13
2022-10-13T18:14:03.514Z,99783.28
2022-10-13T18:16:30.045Z,99787.78
2022-10-13T18:18:56.560Z,99781.59
2022-10-13T18:21:27.711Z,99787.03
2022-10-13T18:23:56.124Z,99786.22
2022-10-13T18:26:23.503Z,99789.69
2022-10-13T18:28:50.570Z,99786.22
2022-10-13T18:31:20.573Z,99792.47
2022-10-13T18:33:47.502Z,99800.31
2022-10-13T18:36:26.316Z,99790.09
2022-10-13T18:38:54.210Z,99788.88
2022-10-13T18:41:23.658Z,99795.13
2022-10-13T18:43:50.494Z,99787.03
2022-10-13T18:46:17.754Z,99785.34
2022-10-13T18:48:44.316Z,99789.09
2022-10-13T18:51:13.465Z,99784.88
2022-10-13T18:53:42.561Z,99781.38
2022-10-13T18:56:13.394Z,99784.16
2022-10-13T18:58:40.197Z,99791.16
2022-10-13T19:01:09.619Z,99786.81
2022-10-13T19:03:37.740Z,99786.81
2022-10-13T19:06:06.105Z,99793.09
2022-10-13T19:08:33.281Z,99791.28
2022-10-13T19:10:59.992Z,99793.94
2022-10-13T19:13:27.829Z,99787.78
2022-10-13T19:16:02.006Z,99784.41
2022-10-13T19:18:28.894Z,99783.31
2022-10-13T19:20:55.758Z,99790.31
2022-10-13T19:23:22.529Z,99790.44
2022-10-13T19:25:49.131Z,99792.13
2022-10-13T19:28:15.916Z,99793.94
2022-10-13T19:30:42.571Z,99790.31
2022-10-13T19:33:09.803Z,99786.69
2022-10-13T19:35:45.195Z,99786.81
2022-10-13T19:38:13.115Z,99790.91
2022-10-13T19:40:44.630Z,99792.00
2022-10-13T19:43:11.192Z,99789.09
2022-10-13T19:45:45.127Z,99790.19
2022-10-13T19:48:11.713Z,99792.63
2022-10-13T19:50:38.282Z,99787.31
2022-10-13T19:53:04.856Z,99792.63
2022-10-13T19:55:32.008Z,99797.78
2022-10-13T19:57:58.913Z,99795.97
2022-10-13T20:00:25.500Z,99794.19
2022-10-13T20:02:52.329Z,99795.88
2022-10-13T20:05:23.237Z,99793.22
2022-10-13T20:07:51.939Z,99790.44
2022-10-13T20:10:18.501Z,99797.44
2022-10-13T20:12:45.082Z,99802.63
2022-10-13T20:15:11.696Z,99789.34
2022-10-13T20:17:38.251Z,99794.53
2022-10-13T20:20:06.401Z,99797.19
2022-10-13T20:22:33.447Z,99796.22
2022-10-13T20:25:00.011Z,99798.00
2022-10-13T20:27:26.548Z,99796.34
2022-10-13T20:29:53.083Z,99796.34
2022-10-13T20:32:19.667Z,99797.31
2022-10-13T20:34:46.208Z,99798.41
2022-10-13T20:37:12.730Z,99799.34
2022-10-13T20:39:39.340Z,99792.34
2022-10-13T20:42:06.009Z,99791.53
2022-10-13T20:44:32.739Z,99800.44
2022-10-13T20:46:59.241Z,99793.44
2022-10-13T20:49:25.826Z,99794.31
2022-10-13T20:51:52.652Z,99792.63
2022-10-13T20:54:19.244Z,99790.78
2022-10-13T20:56:47.242Z,99800.44
2022-10-13T20:59:15.090Z,99800.59
2022-10-13T21:01:42.308Z,99797.94
2022-10-13T21:04:09.197Z,99801.53
2022-10-13T21:06:36.235Z,99792.75
2022-10-13T21:09:04.616Z,99790.91
2022-10-13T21:11:31.336Z,99794.53
2022-10-13T21:13:57.969Z,99802.50
2022-10-13T21:16:27.915Z,99801.66
2022-10-13T21:18:55.904Z,99790.19
2022-10-13T21:21:25.097Z,99792.00
2022-10-13T21:23:56.994Z,99793.94
2022-10-13T21:26:25.394Z,99798.28
2022-10-13T21:28:52.164Z,99790.31
2022-10-13T21:31:21.553Z,99795.75
2022-10-13T21:33:49.106Z,99792.13
2022-10-13T21:36:20.355Z,99792.38
2022-10-13T21:38:49.948Z,99790.44
2022-10-13T21:41:16.588Z,99791.28
2022-10-13T21:43:43.322Z,99790.44
2022-10-13T21:46:15.439Z,99792.38
2022-10-13T21:48:42.608Z,99799.38
2022-10-13T21:51:19.594Z,99803.00
2022-10-13T21:53:55.334Z,99796.84
2022-10-13T21:56:22.677Z,99797.44
2022-10-13T21:58:49.349Z,99795.63
2022-10-13T22:01:17.796Z,99798.28
2022-10-13T22:03:47.089Z,99803.47
2022-10-13T22:06:19.058Z,99798.16
2022-10-13T22:08:48.681Z,99788.38
2022-10-13T22:11:15.844Z,99791.75
2022-10-13T22:13:42.609Z,99790.91
2022-10-13T22:16:12.790Z,99795.50
2022-10-13T22:18:39.309Z,99791.03
2022-10-13T22:21:08.533Z,99784.03
2022-10-13T22:23:35.177Z,99787.44
2022-10-13T22:26:02.175Z,99787.44
2022-10-13T22:28:32.272Z,99785.72
2022-10-13T22:31:09.993Z,99784.03
2022-10-13T22:33:38.302Z,99779.47
2022-10-13T22:36:10.239Z,99782.22
2022-10-13T22:38:36.853Z,99774.97
2022-10-13T22:41:05.468Z,99784.78
2022-10-13T22:43:32.605Z,99784.78
2022-10-13T22:45:59.305Z,99777.63
2022-10-13T22:48:25.891Z,99782.94
2022-10-13T22:50:52.553Z,99778.59
2022-10-13T22:53:19.658Z,99780.41
2022-10-13T22:55:46.263Z,99776.81
2022-10-13T22:58:12.806Z,99776.81
2022-10-13T23:00:39.803Z,99790.09
2022-10-13T23:03:06.403Z,99782.13
2022-10-13T23:05:33.098Z,99779.56
2022-10-13T23:07:59.674Z,99775.09
2022-10-13T23:10:26.233Z,99782.22
2022-10-13T23:12:52.742Z,99775.09
2022-10-13T23:15:19.329Z,99775.09
2022-10-13T23:17:48.699Z,99771.72
2022-10-13T23:20:15.289Z,99773.41
2022-10-13T23:22:42.099Z,99769.94
2022-10-13T23:25:08.815Z,99771.72
2022-10-13T23:27:35.364Z,99770.75
2022-10-13T23:30:02.195Z,99765.56
2022-10-13T23:32:28.724Z,99767.41
2022-10-13T23:34:55.247Z,99764.00
2022-10-13T23:37:22.090Z,99756.03
2022-10-13T23:39:48.970Z,99759.78
2022-10-13T23:42:15.669Z,99764.28
2022-10-13T23:44:42.189Z,99759.19
2022-10-13T23:47:08.747Z,99760.13
2022-10-13T23:49:35.280Z,99754.09
2022-10-13T23:52:01.820Z,99756.88
2022-10-13T23:54:30.928Z,99756.16
2022-10-13T23:56:57.565Z,99755.41
2022-10-13T23:59:24.197Z,99753.72
